.
WxDataArchive / Data Records for 2015-12-26
2015-12-25 December 2015 2015-12-27

Data Records for Saturday, 26 December 2015

Time	Temp	Chill	HIndex	Humid	Dewpt	 Wind 	HiWind	WindDir	Rain 	Barom
-----	----	-----	------	-----	-----	------	------	-------	-----	-----
00:00	36.6	36.6	36.6	83	31.9	2	5	112	0.00	30.337 
00:05	36.6	36.6	36.6	83	31.9	2	6	90	0.00	30.337 
00:10	36.5	36.5	36.5	83	31.8	2	7	90	0.00	30.337 
00:15	36.5	36.5	36.5	83	31.8	1	3	68	0.00	30.334 
00:20	36.3	36.3	36.3	84	31.9	2	5	90	0.00	30.334 
00:25	36.5	36.5	36.5	84	32.1	2	7	90	0.00	30.334 
00:30	36.5	36.5	36.5	84	32.1	2	6	90	0.00	30.328 
00:35	36.5	36.5	36.5	84	32.1	2	6	112	0.00	30.328 
00:40	36.3	36.3	36.3	84	31.9	3	7	90	0.00	30.328 
00:45	36.3	36.3	36.3	84	31.9	3	6	90	0.00	30.322 
00:50	36.2	36.2	36.2	84	31.8	3	5	112	0.00	30.322 
00:55	36.0	36.0	36.0	85	31.9	2	6	90	0.00	30.322 
01:00	36.0	36.0	36.0	85	31.9	2	5	90	0.00	30.324 
01:05	36.0	36.0	36.0	85	31.9	1	4	90	0.00	30.324 
01:10	35.9	35.9	35.9	86	32.1	1	6	90	0.00	30.324 
01:15	36.0	36.0	36.0	86	32.2	1	6	90	0.00	30.320 
01:20	36.0	36.0	36.0	86	32.2	1	6	90	0.00	30.320 
01:25	36.0	36.0	36.0	86	32.2	1	6	90	0.00	30.320 
01:30	36.0	36.0	36.0	86	32.2	0	3	90	0.00	30.313 
01:35	36.0	36.0	36.0	87	32.5	1	6	90	0.00	30.313 
01:40	36.0	36.0	36.0	87	32.5	1	4	90	0.00	30.313 
01:45	36.0	36.0	36.0	87	32.5	1	4	90	0.00	30.306 
01:50	36.0	36.0	36.0	87	32.5	2	5	90	0.00	30.306 
01:55	36.0	36.0	36.0	87	32.5	1	5	90	0.00	30.306 
02:00	36.2	36.2	36.2	88	33.0	2	7	90	0.00	30.307 
02:05	36.3	36.3	36.3	88	33.1	2	7	112	0.00	30.307 
02:10	36.5	36.5	36.5	88	33.3	3	9	112	0.00	30.307 
02:15	36.5	36.5	36.5	88	33.3	2	7	112	0.00	30.303 
02:20	36.6	33.4	36.6	88	33.4	4	9	90	0.00	30.303 
02:25	36.8	36.8	36.8	88	33.6	2	7	90	0.00	30.303 
02:30	36.8	36.8	36.8	88	33.6	3	8	112	0.00	30.303 
02:35	36.9	36.9	36.9	88	33.7	3	7	90	0.00	30.303 
02:40	37.0	37.0	37.0	88	33.8	3	9	90	0.00	30.303 
02:45	37.0	37.0	37.0	88	33.8	3	8	112	0.00	30.312 
02:50	37.0	37.0	37.0	88	33.8	3	7	112	0.00	30.312 
02:55	37.2	37.2	37.2	88	34.0	3	9	90	0.00	30.312 
03:00	37.2	37.2	37.2	88	34.0	3	7	112	0.00	30.303 
03:05	37.2	34.1	37.2	88	34.0	4	8	90	0.00	30.303 
03:10	37.2	37.2	37.2	88	34.0	3	5	90	0.00	30.303 
03:15	37.2	37.2	37.2	87	33.7	3	7	112	0.00	30.302 
03:20	37.2	37.2	37.2	87	33.7	2	10	90	0.00	30.302 
03:25	37.2	37.2	37.2	87	33.7	3	10	90	0.00	30.302 
03:30	37.2	37.2	37.2	87	33.7	2	7	90	0.00	30.303 
03:35	37.2	37.2	37.2	87	33.7	3	11	90	0.00	30.303 
03:40	37.2	37.2	37.2	86	33.4	2	7	112	0.00	30.303 
03:45	37.2	37.2	37.2	86	33.4	2	7	68	0.00	30.302 
03:50	37.0	37.0	37.0	86	33.2	2	6	112	0.00	30.302 
03:55	37.0	37.0	37.0	86	33.2	2	6	90	0.00	30.302 
04:00	37.0	37.0	37.0	86	33.2	2	6	90	0.00	30.303 
04:05	37.0	37.0	37.0	85	32.9	3	9	90	0.00	30.303 
04:10	37.2	37.2	37.2	84	32.8	2	5	112	0.00	30.303 
04:15	37.2	37.2	37.2	84	32.8	2	5	90	0.00	30.305 
04:20	37.2	37.2	37.2	84	32.8	1	4	90	0.00	30.305 
04:25	37.2	37.2	37.2	84	32.8	0	3	90	0.00	30.305 
04:30	37.0	37.0	37.0	84	32.6	2	5	90	0.00	30.305 
04:35	37.0	37.0	37.0	84	32.6	2	5	90	0.00	30.305 
04:40	36.9	36.9	36.9	84	32.5	1	4	112	0.00	30.305 
04:45	36.8	36.8	36.8	84	32.4	1	5	90	0.00	30.295 
04:50	36.6	36.6	36.6	84	32.2	1	6	112	0.00	30.295 
04:55	36.6	36.6	36.6	85	32.5	2	7	112	0.00	30.295 
05:00	36.6	36.6	36.6	85	32.5	2	5	112	0.00	30.291 
05:05	36.5	36.5	36.5	85	32.4	2	5	112	0.00	30.291 
05:10	36.5	36.5	36.5	85	32.4	3	6	90	0.00	30.291 
05:15	36.3	36.3	36.3	85	32.2	2	7	90	0.00	30.291 
05:20	36.3	36.3	36.3	85	32.2	2	5	90	0.00	30.291 
05:25	36.2	36.2	36.2	86	32.4	2	5	112	0.00	30.291 
05:30	36.2	36.2	36.2	86	32.4	1	5	112	0.00	30.290 
05:35	36.2	36.2	36.2	86	32.4	2	7	112	0.00	30.290 
05:40	36.2	36.2	36.2	86	32.4	1	5	90	0.00	30.290 
05:45	36.2	36.2	36.2	86	32.4	2	7	90	0.00	30.288 
05:50	36.3	36.3	36.3	86	32.5	2	5	90	0.00	30.288 
05:55	36.3	36.3	36.3	86	32.5	1	4	90	0.00	30.288 
06:00	36.2	36.2	36.2	86	32.4	1	6	90	0.00	30.291 
06:05	36.2	36.2	36.2	86	32.4	2	5	90	0.00	30.291 
06:10	36.2	36.2	36.2	86	32.4	1	4	90	0.00	30.291 
06:15	36.2	36.2	36.2	86	32.4	2	5	90	0.00	30.292 
06:20	36.2	36.2	36.2	86	32.4	2	5	90	0.00	30.292 
06:25	36.2	36.2	36.2	86	32.4	1	5	112	0.00	30.292 
06:30	36.2	36.2	36.2	87	32.7	3	7	112	0.00	30.286 
06:35	36.2	36.2	36.2	87	32.7	2	7	90	0.00	30.286 
06:40	36.2	36.2	36.2	87	32.7	2	5	90	0.00	30.286 
06:45	36.0	36.0	36.0	87	32.5	2	6	90	0.00	30.283 
06:50	36.0	36.0	36.0	87	32.5	2	6	112	0.00	30.283 
06:55	36.0	36.0	36.0	87	32.5	2	6	90	0.00	30.283 
07:00	36.0	36.0	36.0	87	32.5	2	6	90	0.00	30.280 
07:05	36.2	32.9	36.2	88	33.0	4	7	90	0.00	30.280 
07:10	36.2	36.2	36.2	88	33.0	2	7	90	0.00	30.280 
07:15	36.3	36.3	36.3	88	33.1	2	5	90	0.00	30.271 
07:20	36.6	36.6	36.6	88	33.4	3	7	90	0.00	30.271 
07:25	36.8	36.8	36.8	88	33.6	2	5	90	0.00	30.271 
07:30	36.9	36.9	36.9	88	33.7	2	6	112	0.00	30.261 
07:35	37.0	37.0	37.0	88	33.8	2	7	112	0.00	30.261 
07:40	37.3	37.3	37.3	88	34.1	3	6	90	0.00	30.261 
07:45	37.5	37.5	37.5	89	34.6	2	6	112	0.00	30.259 
07:50	37.6	37.6	37.6	89	34.7	1	5	112	0.00	30.259 
07:55	37.8	37.8	37.8	89	34.9	2	7	112	0.00	30.259 
08:00	37.8	37.8	37.8	89	34.9	1	7	112	0.00	30.246 
08:05	37.8	37.8	37.8	89	34.9	3	10	68	0.00	30.246 
08:10	37.9	37.9	37.9	89	35.0	3	9	90	0.00	30.246 
08:15	38.0	38.0	38.0	89	35.1	2	7	112	0.00	30.243 
08:20	38.2	38.2	38.2	89	35.2	2	7	90	0.00	30.243 
08:25	38.3	38.3	38.3	90	35.6	3	5	112	0.00	30.243 
08:30	38.6	38.6	38.6	90	35.9	3	6	90	0.00	30.232 
08:35	38.8	38.8	38.8	90	36.1	3	7	112	0.00	30.232 
08:40	39.2	36.4	39.2	90	36.5	4	9	90	0.00	30.232 
08:45	39.6	36.9	39.6	90	36.9	4	11	112	0.00	30.231 
08:50	40.1	36.6	40.1	89	37.1	5	12	90	0.00	30.231 
08:55	40.3	36.8	40.3	88	37.0	5	11	90	0.00	30.231 
09:00	40.5	37.9	40.5	88	37.2	4	10	112	0.00	30.229 
09:05	40.6	37.2	40.6	87	37.0	5	11	112	0.00	30.229 
09:10	40.8	37.4	40.8	87	37.2	5	10	90	0.00	30.229 
09:15	40.9	37.5	40.9	87	37.3	5	10	90	0.00	30.231 
09:20	40.9	38.4	40.9	87	37.3	4	9	90	0.00	30.231 
09:25	41.1	38.6	41.1	87	37.5	4	7	90	0.00	30.231 
09:30	41.2	38.7	41.2	87	37.6	4	12	90	0.00	30.230 
09:35	41.3	38.8	41.3	87	37.7	4	10	90	0.00	30.230 
09:40	41.5	38.2	41.5	87	37.9	5	12	90	0.00	30.230 
09:45	41.6	41.6	41.6	87	38.0	3	7	90	0.00	30.228 
09:50	41.6	39.2	41.6	88	38.3	4	9	90	0.00	30.228 
09:55	41.6	39.2	41.6	88	38.3	4	10	90	0.00	30.228 
10:00	41.6	39.2	41.6	88	38.3	4	9	90	0.00	30.232 
10:05	41.6	37.7	41.6	89	38.6	6	12	112	0.00	30.232 
10:10	41.6	37.7	41.6	89	38.6	6	12	90	0.00	30.232 
10:15	41.6	37.7	41.6	90	38.9	6	14	112	0.00	30.218 
10:20	41.6	39.2	41.6	90	38.9	4	11	90	0.00	30.218 
10:25	41.6	39.2	41.6	90	38.9	4	8	112	0.00	30.218 
10:30	41.8	39.4	41.8	90	39.1	4	10	90	0.00	30.229 
10:35	41.8	39.4	41.8	90	39.1	4	10	90	0.00	30.229 
10:40	41.9	39.5	41.9	90	39.2	4	8	90	0.00	30.229 
10:45	41.9	39.5	41.9	90	39.2	4	9	90	0.00	30.232 
10:50	42.1	39.7	42.1	90	39.4	4	7	90	0.00	30.232 
10:55	42.2	42.2	42.2	90	39.5	3	6	90	0.00	30.232 
11:00	42.3	40.0	42.3	89	39.3	4	7	112	0.00	30.227 
11:05	42.5	40.2	42.5	89	39.5	4	11	90	0.00	30.227 
11:10	42.6	40.3	42.6	88	39.3	4	10	90	0.00	30.227 
11:15	42.8	40.6	42.8	88	39.5	4	11	112	0.00	30.212 
11:20	42.9	40.7	42.9	87	39.3	4	10	90	0.00	30.212 
11:25	43.1	40.1	43.1	86	39.2	5	12	90	0.00	30.212 
11:30	43.2	39.6	43.2	86	39.3	6	11	112	0.00	30.196 
11:35	43.3	40.3	43.3	85	39.1	5	10	90	0.00	30.196 
11:40	43.3	40.3	43.3	84	38.8	5	10	112	0.00	30.196 
11:45	43.5	40.6	43.5	84	39.0	5	9	90	0.00	30.194 
11:50	43.5	41.4	43.5	84	39.0	4	9	112	0.00	30.194 
11:55	43.5	43.5	43.5	84	39.0	3	11	90	0.00	30.194 
12:00	43.5	41.4	43.5	84	39.0	4	10	112	0.00	30.195 
12:05	43.5	41.4	43.5	84	39.0	4	7	112	0.00	30.195 
12:10	43.3	40.3	43.3	84	38.8	5	10	112	0.00	30.195 
12:15	43.3	41.1	43.3	84	38.8	4	9	90	0.00	30.183 
12:20	43.3	43.3	43.3	84	38.8	3	6	90	0.00	30.183 
12:25	43.3	43.3	43.3	84	38.8	3	6	90	0.00	30.183 
12:30	43.3	40.3	43.3	84	38.8	5	12	112	0.00	30.168 
12:35	43.3	43.3	43.3	84	38.8	3	10	112	0.00	30.168 
12:40	43.2	43.2	43.2	85	39.0	3	7	112	0.00	30.168 
12:45	43.2	41.0	43.2	85	39.0	4	11	90	0.00	30.149 
12:50	43.2	40.2	43.2	85	39.0	5	11	90	0.00	30.149 
12:55	43.2	39.6	43.2	86	39.3	6	10	90	0.00	30.149 
13:00	43.2	41.0	43.2	86	39.3	4	7	112	0.00	30.133 
13:05	43.2	41.0	43.2	86	39.3	4	11	90	0.00	30.133 
13:10	43.2	41.0	43.2	86	39.3	4	10	90	0.00	30.133 
13:15	43.2	41.0	43.2	86	39.3	4	10	112	0.00	30.136 
13:20	43.2	41.0	43.2	86	39.3	4	9	90	0.00	30.136 
13:25	43.2	40.2	43.2	87	39.6	5	11	90	0.00	30.136 
13:30	43.1	40.9	43.1	87	39.5	4	11	112	0.00	30.128 
13:35	43.1	43.1	43.1	87	39.5	3	7	112	0.00	30.128 
13:40	43.1	43.1	43.1	88	39.8	2	6	90	0.00	30.128 
13:45	43.1	40.9	43.1	88	39.8	4	9	112	0.00	30.126 
13:50	43.1	40.1	43.1	88	39.8	5	10	90	0.00	30.126 
13:55	42.9	40.7	42.9	89	39.9	4	9	112	0.01	30.126 
14:00	42.8	42.8	42.8	90	40.1	3	6	90	0.01	30.102 
14:05	42.6	42.6	42.6	91	40.2	2	7	90	0.01	30.102 
14:10	42.6	42.6	42.6	91	40.2	2	5	112	0.02	30.102 
14:15	42.6	42.6	42.6	92	40.4	1	4	112	0.01	30.091 
14:20	42.6	42.6	42.6	92	40.4	3	10	112	0.01	30.091 
14:25	42.5	42.5	42.5	92	40.3	2	7	90	0.02	30.091 
14:30	42.5	42.5	42.5	92	40.3	2	4	90	0.00	30.095 
14:35	42.5	42.5	42.5	93	40.6	2	5	112	0.01	30.095 
14:40	42.5	42.5	42.5	93	40.6	1	3	112	0.01	30.095 
14:45	42.5	42.5	42.5	93	40.6	1	4	112	0.01	30.101 
14:50	42.6	42.6	42.6	93	40.7	1	4	112	0.02	30.101 
14:55	42.6	42.6	42.6	93	40.7	1	4	112	0.02	30.101 
15:00	42.6	42.6	42.6	93	40.7	1	5	112	0.01	30.102 
15:05	42.6	42.6	42.6	94	41.0	1	3	90	0.02	30.102 
15:10	42.6	42.6	42.6	94	41.0	1	3	90	0.02	30.102 
15:15	42.6	42.6	42.6	94	41.0	1	3	90	0.01	30.103 
15:20	42.6	42.6	42.6	94	41.0	2	4	90	0.01	30.103 
15:25	42.6	42.6	42.6	94	41.0	1	4	90	0.01	30.103 
15:30	42.8	42.8	42.8	94	41.2	2	4	90	0.01	30.099 
15:35	42.8	42.8	42.8	94	41.2	2	5	90	0.01	30.099 
15:40	42.8	42.8	42.8	94	41.2	2	5	90	0.00	30.099 
15:45	42.8	42.8	42.8	94	41.2	2	5	90	0.01	30.089 
15:50	42.8	42.8	42.8	95	41.5	2	5	90	0.00	30.089 
15:55	42.8	42.8	42.8	95	41.5	2	5	90	0.01	30.089 
16:00	42.8	42.8	42.8	95	41.5	2	5	90	0.01	30.086 
16:05	42.8	42.8	42.8	95	41.5	2	5	90	0.01	30.086 
16:10	42.8	42.8	42.8	95	41.5	3	5	90	0.01	30.086 
16:15	42.9	42.9	42.9	95	41.6	3	6	90	0.01	30.078 
16:20	42.9	40.7	42.9	95	41.6	4	7	112	0.01	30.078 
16:25	42.9	42.9	42.9	95	41.6	3	6	112	0.00	30.078 
16:30	42.9	40.7	42.9	95	41.6	4	7	90	0.01	30.061 
16:35	42.9	42.9	42.9	95	41.6	3	7	90	0.02	30.061 
16:40	42.9	42.9	42.9	95	41.6	2	5	112	0.01	30.061 
16:45	42.9	40.7	42.9	95	41.6	4	7	90	0.01	30.036 
16:50	42.9	40.7	42.9	95	41.6	4	8	112	0.01	30.036 
16:55	43.1	40.1	43.1	96	42.0	5	11	112	0.01	30.036 
17:00	43.1	39.5	43.1	96	42.0	6	12	112	0.01	30.008 
17:05	43.2	43.2	43.2	96	42.1	2	6	112	0.01	30.008 
17:10	43.3	43.3	43.3	92	41.1	2	4	90	0.00	30.008 
17:15	43.3	43.3	43.3	96	42.2	2	4	112	0.00	30.023 
17:20	43.5	43.5	43.5	96	42.4	2	6	112	0.00	30.023 
17:25	43.8	43.8	43.8	96	42.7	2	4	135	0.01	30.023 
17:30	43.8	43.8	43.8	96	42.7	1	4	112	0.00	30.017 
17:35	43.8	43.8	43.8	96	42.7	0	4	90	0.00	30.017 
17:40	43.9	43.9	43.9	96	42.8	1	4	90	0.00	30.017 
17:45	44.1	44.1	44.1	96	43.0	0	2	112	0.01	30.021 
17:50	44.2	44.2	44.2	96	43.1	1	3	112	0.00	30.021 
17:55	44.3	44.3	44.3	96	43.2	0	2	112	0.00	30.021 
18:00	44.3	44.3	44.3	96	43.2	0	1	112	0.00	30.026 
18:05	44.5	44.5	44.5	96	43.4	0	1	112	0.00	30.026 
18:10	44.6	44.6	44.6	96	43.5	0	1	112	0.00	30.026 
18:15	44.6	44.6	44.6	96	43.5	0	1	112	0.00	30.023 
18:20	44.6	44.6	44.6	96	43.5	1	2	112	0.00	30.023 
18:25	44.6	44.6	44.6	96	43.5	1	3	112	0.00	30.023 
18:30	44.6	44.6	44.6	96	43.5	0	2	112	0.00	30.016 
18:35	44.6	44.6	44.6	96	43.5	0	2	112	0.01	30.016 
18:40	44.6	44.6	44.6	96	43.5	0	1	112	0.00	30.016 
18:45	44.6	44.6	44.6	96	43.5	0	1	112	0.00	30.013 
18:50	44.6	44.6	44.6	96	43.5	0	1	112	0.00	30.013 
18:55	44.6	44.6	44.6	96	43.5	0	1	112	0.01	30.013 
19:00	44.8	44.8	44.8	96	43.7	0	2	112	0.00	30.008 
19:05	44.8	44.8	44.8	96	43.7	0	2	135	0.00	30.008 
19:10	44.9	44.9	44.9	96	43.8	0	2	135	0.01	30.008 
19:15	44.9	44.9	44.9	96	43.8	0	3	135	0.01	30.003 
19:20	45.1	45.1	45.1	96	44.0	0	2	112	0.01	30.003 
19:25	45.2	45.2	45.2	96	44.1	0	2	135	0.01	30.003 
19:30	45.2	45.2	45.2	96	44.1	0	2	135	0.00	30.005 
19:35	45.4	45.4	45.4	96	44.3	0	1	135	0.00	30.005 
19:40	45.5	45.5	45.5	96	44.4	0	1	135	0.01	30.005 
19:45	45.7	45.7	45.7	96	44.6	0	1	135	0.01	30.004 
19:50	45.7	45.7	45.7	96	44.6	0	1	135	0.00	30.004 
19:55	45.7	45.7	45.7	96	44.6	0	1	135	0.01	30.004 
20:00	45.8	45.8	45.8	96	44.7	0	0	---	0.00	30.000 
20:05	45.8	45.8	45.8	96	44.7	0	1	135	0.01	30.000 
20:10	45.8	45.8	45.8	96	44.7	0	1	135	0.00	30.000 
20:15	46.0	46.0	46.0	96	44.9	0	1	135	0.01	29.990 
20:20	46.1	46.1	46.1	96	45.0	0	1	135	0.00	29.990 
20:25	46.2	46.2	46.2	96	45.1	0	1	135	0.00	29.990 
20:30	46.2	46.2	46.2	96	45.1	0	1	135	0.00	29.984 
20:35	46.4	46.4	46.4	96	45.3	0	1	135	0.00	29.984 
20:40	46.5	46.5	46.5	96	45.4	0	1	135	0.01	29.984 
20:45	46.7	46.7	46.7	97	45.9	0	2	135	0.00	29.979 
20:50	46.8	46.8	46.8	97	46.0	0	1	135	0.00	29.979 
20:55	47.0	47.0	47.0	97	46.2	0	2	135	0.01	29.979 
21:00	47.1	47.1	47.1	97	46.3	0	1	135	0.00	29.972 
21:05	47.3	47.3	47.3	97	46.5	0	1	135	0.00	29.972 
21:10	47.4	47.4	47.4	97	46.6	0	1	135	0.00	29.972 
21:15	47.4	47.4	47.4	97	46.6	0	0	---	0.01	29.974 
21:20	47.6	47.6	47.6	97	46.8	0	0	---	0.00	29.974 
21:25	47.6	47.6	47.6	97	46.8	0	1	135	0.00	29.974 
21:30	47.7	47.7	47.7	97	46.9	0	0	---	0.01	29.967 
21:35	47.7	47.7	47.7	97	46.9	0	1	135	0.00	29.967 
21:40	47.9	47.9	47.9	97	47.1	0	1	135	0.01	29.967 
21:45	48.0	48.0	48.0	97	47.2	0	1	135	0.00	29.954 
21:50	48.2	48.2	48.2	97	47.4	0	1	135	0.00	29.954 
21:55	48.5	48.5	48.5	97	47.7	0	0	---	0.01	29.954 
22:00	48.6	48.6	48.6	97	47.8	0	0	---	0.01	29.948 
22:05	48.8	48.8	48.8	97	48.0	0	1	135	0.00	29.948 
22:10	49.1	49.1	49.1	97	48.3	0	2	135	0.01	29.948 
22:15	49.4	49.4	49.4	97	48.6	0	1	135	0.00	29.927 
22:20	49.6	49.6	49.6	97	48.8	0	1	135	0.00	29.927 
22:25	49.9	49.9	49.9	97	49.1	0	1	135	0.00	29.927 
22:30	50.2	50.2	50.2	97	49.4	0	1	135	0.00	29.927 
22:35	50.4	50.4	50.4	97	49.6	0	1	135	0.01	29.927 
22:40	50.4	50.4	50.4	97	49.6	0	1	135	0.00	29.927 
22:45	50.4	50.4	50.4	97	49.6	0	0	---	0.00	29.915 
22:50	50.1	50.1	50.1	97	49.3	0	1	135	0.00	29.915 
22:55	49.8	49.8	49.8	97	49.0	0	1	135	0.00	29.915 
23:00	49.5	49.5	49.5	97	48.7	0	1	135	0.00	29.916 
23:05	49.4	49.4	49.4	97	48.6	0	1	135	0.00	29.916 
23:10	49.4	49.4	49.4	97	48.6	0	2	135	0.00	29.916 
23:15	49.4	49.4	49.4	97	48.6	0	1	135	0.00	29.934 
23:20	49.2	49.2	49.2	97	48.4	0	1	135	0.01	29.934 
23:25	48.8	48.8	48.8	97	48.0	0	2	135	0.00	29.934 
23:30	48.5	48.5	48.5	97	47.7	0	3	22	0.00	29.935 
23:35	48.2	48.2	48.2	97	47.4	0	1	22	0.00	29.935 
23:40	48.2	48.2	48.2	97	47.4	0	1	22	0.01	29.935 
23:45	48.0	48.0	48.0	97	47.2	0	1	22	0.00	29.951 
23:50	48.0	48.0	48.0	97	47.2	0	0	---	0.00	29.951 
23:55	47.9	47.9	47.9	97	47.1	0	0	---	0.01	29.951 

CoCoRaHS
IN-AL-39
A2 Web Hosting
Creative Commons License
GoDaddy
search engine by freefind advanced

loaded 2018-11-16 00:05:26 • last modified 2010-11-18 10:43:29
Privacy PolicyDisclaimer
• wx.awcolley.com is powered by PmWiki v.2002016 •
• all content (unless otherwise noted) © 2018 A W Colley